sensor_id;sensor_type;location;lat;lon;timestamp;P1;durP1;ratioP1;P2;durP2;ratioP2
8171;SDS011;4127;47.908;10.850;2023-05-07T09:42:28;2.50;;;2.30;;
8171;SDS011;4127;47.908;10.850;2023-05-07T09:44:55;2.50;;;2.10;;
8171;SDS011;4127;47.908;10.850;2023-05-07T09:47:24;1.73;;;1.63;;
8171;SDS011;4127;47.908;10.850;2023-05-07T09:49:53;2.17;;;2.08;;
8171;SDS011;4127;47.908;10.850;2023-05-07T09:52:23;3.55;;;2.00;;
8171;SDS011;4127;47.908;10.850;2023-05-07T09:54:51;2.42;;;2.22;;
8171;SDS011;4127;47.908;10.850;2023-05-07T09:57:19;2.28;;;2.08;;
8171;SDS011;4127;47.908;10.850;2023-05-07T09:59:47;2.67;;;2.15;;
8171;SDS011;4127;47.908;10.850;2023-05-07T10:02:15;2.03;;;1.92;;
8171;SDS011;4127;47.908;10.850;2023-05-07T10:04:44;2.55;;;2.00;;
8171;SDS011;4127;47.908;10.850;2023-05-07T10:07:13;2.10;;;1.92;;
8171;SDS011;4127;47.908;10.850;2023-05-07T10:09:41;2.00;;;1.90;;
8171;SDS011;4127;47.908;10.850;2023-05-07T10:12:10;3.63;;;2.08;;
8171;SDS011;4127;47.908;10.850;2023-05-07T10:14:37;2.35;;;1.75;;
8171;SDS011;4127;47.908;10.850;2023-05-07T10:17:04;2.50;;;2.05;;
8171;SDS011;4127;47.908;10.850;2023-05-07T10:19:32;2.05;;;1.88;;
8171;SDS011;4127;47.908;10.850;2023-05-07T10:22:01;2.22;;;1.77;;
8171;SDS011;4127;47.908;10.850;2023-05-07T10:24:32;2.17;;;1.90;;
8171;SDS011;4127;47.908;10.850;2023-05-07T10:27:07;2.00;;;1.90;;
8171;SDS011;4127;47.908;10.850;2023-05-07T10:29:37;2.03;;;1.92;;
8171;SDS011;4127;47.908;10.850;2023-05-07T10:35:02;2.25;;;2.05;;
8171;SDS011;4127;47.908;10.850;2023-05-07T10:37:31;2.08;;;1.92;;
8171;SDS011;4127;47.908;10.850;2023-05-07T10:39:58;2.17;;;1.98;;
8171;SDS011;4127;47.908;10.850;2023-05-07T10:42:25;3.05;;;2.35;;
8171;SDS011;4127;47.908;10.850;2023-05-07T10:44:52;1.80;;;1.70;;
8171;SDS011;4127;47.908;10.850;2023-05-07T10:47:20;2.30;;;2.10;;
8171;SDS011;4127;47.908;10.850;2023-05-07T10:52:23;2.55;;;2.08;;
8171;SDS011;4127;47.908;10.850;2023-05-07T10:57:44;2.70;;;2.50;;
8171;SDS011;4127;47.908;10.850;2023-05-07T11:03:06;2.30;;;2.10;;
8171;SDS011;4127;47.908;10.850;2023-05-07T11:05:34;2.20;;;2.00;;
8171;SDS011;4127;47.908;10.850;2023-05-07T11:08:04;2.13;;;1.98;;
8171;SDS011;4127;47.908;10.850;2023-05-07T11:13:43;2.33;;;2.13;;
8171;SDS011;4127;47.908;10.850;2023-05-07T11:16:18;2.10;;;1.90;;
8171;SDS011;4127;47.908;10.850;2023-05-07T11:18:48;2.80;;;1.98;;
8171;SDS011;4127;47.908;10.850;2023-05-07T11:24:05;2.28;;;2.05;;
8171;SDS011;4127;47.908;10.850;2023-05-07T11:26:46;3.38;;;1.90;;
8171;SDS011;4127;47.908;10.850;2023-05-07T11:29:20;2.55;;;2.35;;
8171;SDS011;4127;47.908;10.850;2023-05-07T11:31:52;2.85;;;2.00;;
8171;SDS011;4127;47.908;10.850;2023-05-07T11:34:20;3.95;;;2.05;;
8171;SDS011;4127;47.908;10.850;2023-05-07T11:36:48;3.75;;;2.17;;
8171;SDS011;4127;47.908;10.850;2023-05-07T11:41:59;2.92;;;2.10;;
8171;SDS011;4127;47.908;10.850;2023-05-07T11:44:42;4.43;;;2.35;;
8171;SDS011;4127;47.908;10.850;2023-05-07T11:47:10;2.20;;;2.00;;
8171;SDS011;4127;47.908;10.850;2023-05-07T11:49:37;2.13;;;1.93;;
8171;SDS011;4127;47.908;10.850;2023-05-07T11:52:04;2.03;;;1.93;;
8171;SDS011;4127;47.908;10.850;2023-05-07T11:54:35;2.53;;;2.03;;
8171;SDS011;4127;47.908;10.850;2023-05-07T11:57:03;3.50;;;1.90;;
8171;SDS011;4127;47.908;10.850;2023-05-07T11:59:30;2.33;;;2.05;;
8171;SDS011;4127;47.908;10.850;2023-05-07T12:02:06;2.80;;;1.98;;
8171;SDS011;4127;47.908;10.850;2023-05-07T12:04:34;2.33;;;2.13;;
8171;SDS011;4127;47.908;10.850;2023-05-07T12:07:00;2.47;;;1.90;;
8171;SDS011;4127;47.908;10.850;2023-05-07T12:09:27;2.30;;;2.10;;
8171;SDS011;4127;47.908;10.850;2023-05-07T12:11:54;2.47;;;1.90;;
8171;SDS011;4127;47.908;10.850;2023-05-07T12:14:26;2.40;;;2.00;;
8171;SDS011;4127;47.908;10.850;2023-05-07T12:16:55;2.45;;;2.25;;
8171;SDS011;4127;47.908;10.850;2023-05-07T12:19:22;2.83;;;2.20;;
8171;SDS011;4127;47.908;10.850;2023-05-07T12:21:49;2.38;;;1.98;;
8171;SDS011;4127;47.908;10.850;2023-05-07T12:24:16;2.40;;;2.20;;
8171;SDS011;4127;47.908;10.850;2023-05-07T12:26:43;2.37;;;2.13;;
8171;SDS011;4127;47.908;10.850;2023-05-07T12:29:10;2.47;;;2.27;;
8171;SDS011;4127;47.908;10.850;2023-05-07T12:31:36;2.10;;;2.00;;
8171;SDS011;4127;47.908;10.850;2023-05-07T12:34:07;2.80;;;2.40;;
8171;SDS011;4127;47.908;10.850;2023-05-07T12:36:40;3.00;;;2.27;;
8171;SDS011;4127;47.908;10.850;2023-05-07T12:39:07;2.27;;;2.07;;
8171;SDS011;4127;47.908;10.850;2023-05-07T12:42:11;2.30;;;2.10;;
8171;SDS011;4127;47.908;10.850;2023-05-07T12:44:32;3.53;;;2.23;;
8171;SDS011;4127;47.908;10.850;2023-05-07T12:47:01;1.97;;;1.87;;
8171;SDS011;4127;47.908;10.850;2023-05-07T12:49:28;2.37;;;2.17;;
8171;SDS011;4127;47.908;10.850;2023-05-07T12:51:55;2.40;;;2.13;;
8171;SDS011;4127;47.908;10.850;2023-05-07T12:54:31;2.30;;;2.00;;
8171;SDS011;4127;47.908;10.850;2023-05-07T12:57:00;4.47;;;2.30;;
8171;SDS011;4127;47.908;10.850;2023-05-07T12:59:36;3.90;;;2.00;;
8171;SDS011;4127;47.908;10.850;2023-05-07T13:02:05;2.37;;;2.17;;
8171;SDS011;4127;47.908;10.850;2023-05-07T13:04:33;2.30;;;2.10;;
8171;SDS011;4127;47.908;10.850;2023-05-07T13:07:00;2.30;;;2.10;;
8171;SDS011;4127;47.908;10.850;2023-05-07T13:09:27;2.40;;;2.20;;
8171;SDS011;4127;47.908;10.850;2023-05-07T13:11:57;2.33;;;2.13;;
8171;SDS011;4127;47.908;10.850;2023-05-07T13:14:27;2.00;;;1.80;;
8171;SDS011;4127;47.908;10.850;2023-05-07T13:16:54;2.30;;;2.10;;
8171;SDS011;4127;47.908;10.850;2023-05-07T13:19:20;2.37;;;1.97;;
8171;SDS011;4127;47.908;10.850;2023-05-07T13:21:47;2.58;;;2.38;;
8171;SDS011;4127;47.908;10.850;2023-05-07T13:24:15;2.40;;;2.20;;
8171;SDS011;4127;47.908;10.850;2023-05-07T13:26:42;2.40;;;2.20;;
8171;SDS011;4127;47.908;10.850;2023-05-07T13:29:11;2.23;;;2.07;;
8171;SDS011;4127;47.908;10.850;2023-05-07T13:31:38;2.50;;;2.30;;
8171;SDS011;4127;47.908;10.850;2023-05-07T13:34:09;2.53;;;2.27;;
8171;SDS011;4127;47.908;10.850;2023-05-07T13:36:36;2.63;;;2.43;;
8171;SDS011;4127;47.908;10.850;2023-05-07T13:39:06;2.43;;;2.23;;
8171;SDS011;4127;47.908;10.850;2023-05-07T13:41:32;2.37;;;2.10;;
8171;SDS011;4127;47.908;10.850;2023-05-07T13:43:59;2.40;;;2.20;;
8171;SDS011;4127;47.908;10.850;2023-05-07T13:46:26;2.13;;;2.03;;
8171;SDS011;4127;47.908;10.850;2023-05-07T13:48:53;1.90;;;1.80;;
8171;SDS011;4127;47.908;10.850;2023-05-07T13:51:20;1.80;;;1.70;;
8171;SDS011;4127;47.908;10.850;2023-05-07T13:53:48;2.10;;;2.00;;
8171;SDS011;4127;47.908;10.850;2023-05-07T13:56:14;2.07;;;1.87;;
8171;SDS011;4127;47.908;10.850;2023-05-07T13:58:41;2.27;;;2.10;;
8171;SDS011;4127;47.908;10.850;2023-05-07T14:01:21;1.90;;;1.80;;
8171;SDS011;4127;47.908;10.850;2023-05-07T14:03:48;2.10;;;1.87;;
8171;SDS011;4127;47.908;10.850;2023-05-07T14:06:15;1.80;;;1.70;;
8171;SDS011;4127;47.908;10.850;2023-05-07T14:08:42;1.70;;;1.60;;
8171;SDS011;4127;47.908;10.850;2023-05-07T14:11:08;1.90;;;1.80;;
8171;SDS011;4127;47.908;10.850;2023-05-07T14:13:35;2.00;;;1.80;;
8171;SDS011;4127;47.908;10.850;2023-05-07T14:16:03;1.90;;;1.80;;
8171;SDS011;4127;47.908;10.850;2023-05-07T14:18:31;2.83;;;1.70;;
8171;SDS011;4127;47.908;10.850;2023-05-07T14:20:59;1.95;;;1.85;;
8171;SDS011;4127;47.908;10.850;2023-05-07T14:23:26;1.90;;;1.80;;
8171;SDS011;4127;47.908;10.850;2023-05-07T14:25:53;1.63;;;1.53;;
8171;SDS011;4127;47.908;10.850;2023-05-07T14:28:20;1.90;;;1.70;;
8171;SDS011;4127;47.908;10.850;2023-05-07T14:30:47;1.87;;;1.60;;
8171;SDS011;4127;47.908;10.850;2023-05-07T14:33:14;1.50;;;1.40;;
8171;SDS011;4127;47.908;10.850;2023-05-07T14:35:41;1.63;;;1.53;;
8171;SDS011;4127;47.908;10.850;2023-05-07T14:38:11;1.70;;;1.60;;
8171;SDS011;4127;47.908;10.850;2023-05-07T14:40:38;1.40;;;1.30;;
8171;SDS011;4127;47.908;10.850;2023-05-07T14:43:04;1.97;;;1.87;;
8171;SDS011;4127;47.908;10.850;2023-05-07T14:45:31;1.60;;;1.50;;
8171;SDS011;4127;47.908;10.850;2023-05-07T14:47:58;2.80;;;1.70;;
8171;SDS011;4127;47.908;10.850;2023-05-07T14:50:25;2.27;;;1.80;;
8171;SDS011;4127;47.908;10.850;2023-05-07T14:52:51;1.90;;;1.80;;
8171;SDS011;4127;47.908;10.850;2023-05-07T14:55:18;4.47;;;1.90;;
8171;SDS011;4127;47.908;10.850;2023-05-07T14:57:45;1.90;;;1.80;;
8171;SDS011;4127;47.908;10.850;2023-05-07T15:00:12;1.90;;;1.80;;
8171;SDS011;4127;47.908;10.850;2023-05-07T15:02:39;2.67;;;2.07;;
8171;SDS011;4127;47.908;10.850;2023-05-07T15:05:06;1.80;;;1.70;;
8171;SDS011;4127;47.908;10.850;2023-05-07T15:07:33;2.20;;;2.00;;
8171;SDS011;4127;47.908;10.850;2023-05-07T15:10:00;1.60;;;1.50;;
8171;SDS011;4127;47.908;10.850;2023-05-07T15:12:27;1.83;;;1.73;;
8171;SDS011;4127;47.908;10.850;2023-05-07T15:14:53;3.17;;;2.40;;
8171;SDS011;4127;47.908;10.850;2023-05-07T15:17:20;1.60;;;1.50;;
8171;SDS011;4127;47.908;10.850;2023-05-07T15:19:47;2.07;;;1.60;;
8171;SDS011;4127;47.908;10.850;2023-05-07T15:22:14;1.52;;;1.42;;
8171;SDS011;4127;47.908;10.850;2023-05-07T15:24:40;1.50;;;1.40;;
8171;SDS011;4127;47.908;10.850;2023-05-07T15:27:07;1.65;;;1.55;;
8171;SDS011;4127;47.908;10.850;2023-05-07T15:29:34;1.50;;;1.40;;
8171;SDS011;4127;47.908;10.850;2023-05-07T15:32:00;1.60;;;1.50;;
8171;SDS011;4127;47.908;10.850;2023-05-07T15:34:27;1.50;;;1.40;;
8171;SDS011;4127;47.908;10.850;2023-05-07T15:36:54;2.95;;;1.60;;
8171;SDS011;4127;47.908;10.850;2023-05-07T15:39:23;1.60;;;1.50;;
8171;SDS011;4127;47.908;10.850;2023-05-07T15:41:50;1.75;;;1.40;;
8171;SDS011;4127;47.908;10.850;2023-05-07T15:44:17;1.67;;;1.40;;
8171;SDS011;4127;47.908;10.850;2023-05-07T15:46:44;1.50;;;1.40;;
8171;SDS011;4127;47.908;10.850;2023-05-07T15:49:10;1.50;;;1.40;;
8171;SDS011;4127;47.908;10.850;2023-05-07T15:51:37;1.60;;;1.50;;
8171;SDS011;4127;47.908;10.850;2023-05-07T15:54:05;1.90;;;1.70;;
8171;SDS011;4127;47.908;10.850;2023-05-07T15:56:32;1.52;;;1.42;;
8171;SDS011;4127;47.908;10.850;2023-05-07T15:58:59;1.92;;;1.65;;
8171;SDS011;4127;47.908;10.850;2023-05-07T16:01:28;1.90;;;1.80;;
8171;SDS011;4127;47.908;10.850;2023-05-07T16:03:56;1.80;;;1.60;;
8171;SDS011;4127;47.908;10.850;2023-05-07T16:06:23;1.80;;;1.70;;
8171;SDS011;4127;47.908;10.850;2023-05-07T16:08:53;2.20;;;2.00;;
8171;SDS011;4127;47.908;10.850;2023-05-07T16:11:26;4.57;;;2.07;;
8171;SDS011;4127;47.908;10.850;2023-05-07T16:13:55;2.00;;;1.80;;
8171;SDS011;4127;47.908;10.850;2023-05-07T16:16:27;2.20;;;2.00;;
8171;SDS011;4127;47.908;10.850;2023-05-07T16:18:58;1.90;;;1.80;;
8171;SDS011;4127;47.908;10.850;2023-05-07T16:21:24;1.80;;;1.70;;
8171;SDS011;4127;47.908;10.850;2023-05-07T16:23:51;1.65;;;1.55;;
8171;SDS011;4127;47.908;10.850;2023-05-07T16:26:18;1.95;;;1.63;;
8171;SDS011;4127;47.908;10.850;2023-05-07T16:28:46;1.97;;;1.70;;
8171;SDS011;4127;47.908;10.850;2023-05-07T16:31:13;1.60;;;1.50;;
8171;SDS011;4127;47.908;10.850;2023-05-07T16:33:44;1.53;;;1.30;;
8171;SDS011;4127;47.908;10.850;2023-05-07T16:36:12;1.43;;;1.33;;
8171;SDS011;4127;47.908;10.850;2023-05-07T16:38:39;1.63;;;1.53;;
8171;SDS011;4127;47.908;10.850;2023-05-07T16:41:08;1.60;;;1.50;;
8171;SDS011;4127;47.908;10.850;2023-05-07T16:43:38;1.20;;;1.10;;
8171;SDS011;4127;47.908;10.850;2023-05-07T16:46:10;1.43;;;1.33;;
8171;SDS011;4127;47.908;10.850;2023-05-07T16:48:37;1.40;;;1.30;;
8171;SDS011;4127;47.908;10.850;2023-05-07T16:51:04;1.60;;;1.50;;
8171;SDS011;4127;47.908;10.850;2023-05-07T16:53:32;1.20;;;1.10;;
8171;SDS011;4127;47.908;10.850;2023-05-07T16:56:05;1.53;;;1.43;;
8171;SDS011;4127;47.908;10.850;2023-05-07T16:58:32;1.33;;;1.23;;
8171;SDS011;4127;47.908;10.850;2023-05-07T17:00:59;1.43;;;1.33;;
8171;SDS011;4127;47.908;10.850;2023-05-07T17:03:28;1.30;;;1.20;;
8171;SDS011;4127;47.908;10.850;2023-05-07T17:05:57;1.57;;;1.37;;
8171;SDS011;4127;47.908;10.850;2023-05-07T17:08:24;1.87;;;1.77;;
8171;SDS011;4127;47.908;10.850;2023-05-07T17:10:51;1.70;;;1.60;;
8171;SDS011;4127;47.908;10.850;2023-05-07T17:13:21;1.90;;;1.60;;
8171;SDS011;4127;47.908;10.850;2023-05-07T17:15:48;2.13;;;1.93;;
8171;SDS011;4127;47.908;10.850;2023-05-07T17:18:15;2.53;;;2.30;;
8171;SDS011;4127;47.908;10.850;2023-05-07T17:20:41;2.50;;;2.30;;
8171;SDS011;4127;47.908;10.850;2023-05-07T17:23:08;2.60;;;2.40;;
8171;SDS011;4127;47.908;10.850;2023-05-07T17:25:35;2.20;;;2.00;;
8171;SDS011;4127;47.908;10.850;2023-05-07T17:28:02;2.63;;;1.90;;
8171;SDS011;4127;47.908;10.850;2023-05-07T17:30:29;1.60;;;1.50;;
8171;SDS011;4127;47.908;10.850;2023-05-07T17:32:55;1.43;;;1.33;;
8171;SDS011;4127;47.908;10.850;2023-05-07T17:35:34;1.50;;;1.40;;
8171;SDS011;4127;47.908;10.850;2023-05-07T17:38:01;1.73;;;1.60;;
8171;SDS011;4127;47.908;10.850;2023-05-07T17:40:28;1.70;;;1.60;;
8171;SDS011;4127;47.908;10.850;2023-05-07T17:42:55;1.27;;;1.17;;
8171;SDS011;4127;47.908;10.850;2023-05-07T17:45:24;1.77;;;1.67;;
8171;SDS011;4127;47.908;10.850;2023-05-07T17:47:51;1.60;;;1.50;;
8171;SDS011;4127;47.908;10.850;2023-05-07T17:50:18;1.50;;;1.40;;
8171;SDS011;4127;47.908;10.850;2023-05-07T17:52:46;1.50;;;1.40;;
8171;SDS011;4127;47.908;10.850;2023-05-07T17:55:13;1.37;;;1.30;;
8171;SDS011;4127;47.908;10.850;2023-05-07T17:57:40;1.33;;;1.30;;
8171;SDS011;4127;47.908;10.850;2023-05-07T18:00:07;1.40;;;1.30;;
8171;SDS011;4127;47.908;10.850;2023-05-07T18:02:37;1.83;;;1.57;;
8171;SDS011;4127;47.908;10.850;2023-05-07T18:05:06;1.70;;;1.60;;
8171;SDS011;4127;47.908;10.850;2023-05-07T18:07:34;1.60;;;1.50;;
8171;SDS011;4127;47.908;10.850;2023-05-07T18:10:01;1.80;;;1.67;;
8171;SDS011;4127;47.908;10.850;2023-05-07T18:12:28;2.10;;;1.67;;
8171;SDS011;4127;47.908;10.850;2023-05-07T18:14:55;2.07;;;1.90;;
8171;SDS011;4127;47.908;10.850;2023-05-07T18:17:21;2.77;;;2.37;;
8171;SDS011;4127;47.908;10.850;2023-05-07T18:19:52;4.70;;;2.70;;
8171;SDS011;4127;47.908;10.850;2023-05-07T18:22:20;2.03;;;1.83;;
8171;SDS011;4127;47.908;10.850;2023-05-07T18:24:48;1.80;;;1.70;;
8171;SDS011;4127;47.908;10.850;2023-05-07T18:27:15;1.80;;;1.70;;
8171;SDS011;4127;47.908;10.850;2023-05-07T18:29:42;3.67;;;3.00;;
8171;SDS011;4127;47.908;10.850;2023-05-07T18:32:09;21.37;;;19.17;;
8171;SDS011;4127;47.908;10.850;2023-05-07T18:34:37;16.03;;;14.53;;
8171;SDS011;4127;47.908;10.850;2023-05-07T18:37:03;3.17;;;2.87;;
8171;SDS011;4127;47.908;10.850;2023-05-07T18:39:30;2.00;;;1.80;;
8171;SDS011;4127;47.908;10.850;2023-05-07T18:41:57;2.80;;;2.10;;
8171;SDS011;4127;47.908;10.850;2023-05-07T18:44:24;2.00;;;1.73;;
8171;SDS011;4127;47.908;10.850;2023-05-07T18:46:51;2.80;;;2.00;;
8171;SDS011;4127;47.908;10.850;2023-05-07T18:49:18;2.30;;;2.03;;
8171;SDS011;4127;47.908;10.850;2023-05-07T18:51:45;2.47;;;2.20;;
8171;SDS011;4127;47.908;10.850;2023-05-07T18:54:12;3.40;;;2.77;;
8171;SDS011;4127;47.908;10.850;2023-05-07T18:56:39;3.23;;;3.03;;
8171;SDS011;4127;47.908;10.850;2023-05-07T18:59:07;3.77;;;3.37;;
8171;SDS011;4127;47.908;10.850;2023-05-07T19:01:33;4.17;;;3.77;;
8171;SDS011;4127;47.908;10.850;2023-05-07T19:04:00;3.80;;;3.50;;
8171;SDS011;4127;47.908;10.850;2023-05-07T19:06:27;5.37;;;3.70;;
8171;SDS011;4127;47.908;10.850;2023-05-07T19:08:57;4.27;;;3.87;;
8171;SDS011;4127;47.908;10.850;2023-05-07T19:11:24;4.00;;;3.70;;
8171;SDS011;4127;47.908;10.850;2023-05-07T19:13:51;4.20;;;3.90;;
8171;SDS011;4127;47.908;10.850;2023-05-07T19:16:18;4.33;;;3.93;;
8171;SDS011;4127;47.908;10.850;2023-05-07T19:18:44;4.80;;;4.27;;
8171;SDS011;4127;47.908;10.850;2023-05-07T19:21:11;4.13;;;3.80;;
8171;SDS011;4127;47.908;10.850;2023-05-07T19:23:38;4.63;;;4.33;;
8171;SDS011;4127;47.908;10.850;2023-05-07T19:26:08;5.27;;;4.87;;
8171;SDS011;4127;47.908;10.850;2023-05-07T19:28:36;5.83;;;5.03;;
8171;SDS011;4127;47.908;10.850;2023-05-07T19:31:05;5.07;;;4.63;;
8171;SDS011;4127;47.908;10.850;2023-05-07T19:33:34;5.73;;;5.23;;
8171;SDS011;4127;47.908;10.850;2023-05-07T19:36:01;5.57;;;5.17;;
8171;SDS011;4127;47.908;10.850;2023-05-07T19:38:28;4.93;;;4.53;;
8171;SDS011;4127;47.908;10.850;2023-05-07T19:40:55;5.10;;;4.70;;
8171;SDS011;4127;47.908;10.850;2023-05-07T19:43:22;5.17;;;4.77;;
8171;SDS011;4127;47.908;10.850;2023-05-07T19:45:51;5.17;;;4.67;;
8171;SDS011;4127;47.908;10.850;2023-05-07T19:48:18;4.33;;;3.93;;
8171;SDS011;4127;47.908;10.850;2023-05-07T19:50:46;4.00;;;3.70;;
8171;SDS011;4127;47.908;10.850;2023-05-07T19:53:14;3.70;;;3.40;;
8171;SDS011;4127;47.908;10.850;2023-05-07T19:55:40;3.27;;;3.03;;
8171;SDS011;4127;47.908;10.850;2023-05-07T19:58:07;4.47;;;3.57;;
8171;SDS011;4127;47.908;10.850;2023-05-07T20:00:34;3.70;;;3.40;;
8171;SDS011;4127;47.908;10.850;2023-05-07T20:03:01;4.30;;;4.00;;
8171;SDS011;4127;47.908;10.850;2023-05-07T20:05:28;4.23;;;3.93;;
8171;SDS011;4127;47.908;10.850;2023-05-07T20:07:55;4.53;;;4.20;;
8171;SDS011;4127;47.908;10.850;2023-05-07T20:10:22;5.13;;;4.73;;
8171;SDS011;4127;47.908;10.850;2023-05-07T20:12:49;4.97;;;4.57;;
8171;SDS011;4127;47.908;10.850;2023-05-07T20:15:16;5.33;;;4.93;;
8171;SDS011;4127;47.908;10.850;2023-05-07T20:17:44;6.07;;;5.57;;
8171;SDS011;4127;47.908;10.850;2023-05-07T20:20:11;6.20;;;5.70;;
8171;SDS011;4127;47.908;10.850;2023-05-07T20:22:39;6.50;;;6.00;;
8171;SDS011;4127;47.908;10.850;2023-05-07T20:25:06;6.20;;;5.63;;
8171;SDS011;4127;47.908;10.850;2023-05-07T20:27:33;6.30;;;5.90;;
8171;SDS011;4127;47.908;10.850;2023-05-07T20:30:00;6.03;;;5.43;;
8171;SDS011;4127;47.908;10.850;2023-05-07T20:32:27;5.30;;;4.90;;
8171;SDS011;4127;47.908;10.850;2023-05-07T20:34:54;5.00;;;4.57;;
8171;SDS011;4127;47.908;10.850;2023-05-07T20:37:21;6.87;;;4.53;;
8171;SDS011;4127;47.908;10.850;2023-05-07T20:39:48;4.93;;;3.90;;
8171;SDS011;4127;47.908;10.850;2023-05-07T20:42:15;5.00;;;4.60;;
8171;SDS011;4127;47.908;10.850;2023-05-07T20:44:42;4.67;;;4.37;;
8171;SDS011;4127;47.908;10.850;2023-05-07T20:47:09;4.17;;;3.83;;
8171;SDS011;4127;47.908;10.850;2023-05-07T20:49:36;4.17;;;3.77;;
8171;SDS011;4127;47.908;10.850;2023-05-07T20:52:03;3.97;;;3.60;;
8171;SDS011;4127;47.908;10.850;2023-05-07T20:54:30;3.97;;;3.60;;
8171;SDS011;4127;47.908;10.850;2023-05-07T20:56:57;4.50;;;4.20;;
8171;SDS011;4127;47.908;10.850;2023-05-07T20:59:25;4.73;;;4.33;;
8171;SDS011;4127;47.908;10.850;2023-05-07T21:01:52;5.20;;;4.70;;
8171;SDS011;4127;47.908;10.850;2023-05-07T21:04:19;4.97;;;4.57;;
8171;SDS011;4127;47.908;10.850;2023-05-07T21:06:46;5.50;;;4.97;;
8171;SDS011;4127;47.908;10.850;2023-05-07T21:09:13;5.27;;;4.87;;
8171;SDS011;4127;47.908;10.850;2023-05-07T21:11:40;5.57;;;5.10;;
8171;SDS011;4127;47.908;10.850;2023-05-07T21:14:07;5.73;;;5.23;;
8171;SDS011;4127;47.908;10.850;2023-05-07T21:16:33;5.50;;;5.10;;
8171;SDS011;4127;47.908;10.850;2023-05-07T21:19:01;4.80;;;4.40;;
8171;SDS011;4127;47.908;10.850;2023-05-07T21:21:28;4.43;;;4.13;;
8171;SDS011;4127;47.908;10.850;2023-05-07T21:23:54;4.30;;;3.90;;
8171;SDS011;4127;47.908;10.850;2023-05-07T21:26:21;4.47;;;4.07;;
8171;SDS011;4127;47.908;10.850;2023-05-07T21:28:49;4.97;;;4.57;;
8171;SDS011;4127;47.908;10.850;2023-05-07T21:31:16;5.57;;;5.10;;
8171;SDS011;4127;47.908;10.850;2023-05-07T21:33:43;5.37;;;4.93;;
8171;SDS011;4127;47.908;10.850;2023-05-07T21:36:10;5.00;;;4.60;;
8171;SDS011;4127;47.908;10.850;2023-05-07T21:38:37;4.83;;;4.43;;
8171;SDS011;4127;47.908;10.850;2023-05-07T21:41:04;5.27;;;4.87;;
8171;SDS011;4127;47.908;10.850;2023-05-07T21:43:31;5.50;;;5.10;;
8171;SDS011;4127;47.908;10.850;2023-05-07T21:45:58;5.90;;;5.40;;
8171;SDS011;4127;47.908;10.850;2023-05-07T21:48:25;5.97;;;5.57;;
8171;SDS011;4127;47.908;10.850;2023-05-07T21:51:10;6.50;;;6.00;;
8171;SDS011;4127;47.908;10.850;2023-05-07T21:53:38;6.17;;;5.67;;
8171;SDS011;4127;47.908;10.850;2023-05-07T21:56:05;6.50;;;6.00;;
8171;SDS011;4127;47.908;10.850;2023-05-07T21:58:32;7.17;;;6.57;;
8171;SDS011;4127;47.908;10.850;2023-05-07T22:00:59;6.43;;;5.93;;
8171;SDS011;4127;47.908;10.850;2023-05-07T22:03:27;6.03;;;5.57;;
8171;SDS011;4127;47.908;10.850;2023-05-07T22:05:54;5.70;;;5.20;;
8171;SDS011;4127;47.908;10.850;2023-05-07T22:08:20;5.47;;;5.00;;
8171;SDS011;4127;47.908;10.850;2023-05-07T22:10:47;4.97;;;4.57;;
8171;SDS011;4127;47.908;10.850;2023-05-07T22:13:14;4.80;;;3.70;;
8171;SDS011;4127;47.908;10.850;2023-05-07T22:15:42;4.20;;;3.90;;
8171;SDS011;4127;47.908;10.850;2023-05-07T22:18:22;4.07;;;3.77;;
8171;SDS011;4127;47.908;10.850;2023-05-07T22:20:50;3.43;;;3.23;;
8171;SDS011;4127;47.908;10.850;2023-05-07T22:23:17;3.17;;;2.97;;
8171;SDS011;4127;47.908;10.850;2023-05-07T22:25:44;3.43;;;3.20;;
8171;SDS011;4127;47.908;10.850;2023-05-07T22:28:10;3.17;;;2.97;;
8171;SDS011;4127;47.908;10.850;2023-05-07T22:30:37;3.93;;;3.63;;
8171;SDS011;4127;47.908;10.850;2023-05-07T22:33:04;3.67;;;3.37;;
8171;SDS011;4127;47.908;10.850;2023-05-07T22:35:31;3.77;;;3.47;;
8171;SDS011;4127;47.908;10.850;2023-05-07T22:37:58;4.07;;;3.77;;
8171;SDS011;4127;47.908;10.850;2023-05-07T22:40:25;3.80;;;3.50;;
8171;SDS011;4127;47.908;10.850;2023-05-07T22:42:51;4.20;;;3.90;;
8171;SDS011;4127;47.908;10.850;2023-05-07T22:45:18;3.47;;;3.27;;
8171;SDS011;4127;47.908;10.850;2023-05-07T22:47:45;4.03;;;3.63;;
8171;SDS011;4127;47.908;10.850;2023-05-07T22:50:12;3.80;;;3.50;;
8171;SDS011;4127;47.908;10.850;2023-05-07T22:52:39;3.30;;;3.07;;
8171;SDS011;4127;47.908;10.850;2023-05-07T22:55:06;3.27;;;3.00;;
8171;SDS011;4127;47.908;10.850;2023-05-07T22:57:33;2.77;;;2.57;;
8171;SDS011;4127;47.908;10.850;2023-05-07T23:00:00;3.37;;;2.43;;
8171;SDS011;4127;47.908;10.850;2023-05-07T23:02:27;3.07;;;2.80;;
8171;SDS011;4127;47.908;10.850;2023-05-07T23:04:56;2.70;;;2.50;;
8171;SDS011;4127;47.908;10.850;2023-05-07T23:07:25;2.80;;;2.60;;
8171;SDS011;4127;47.908;10.850;2023-05-07T23:09:51;2.43;;;2.27;;
8171;SDS011;4127;47.908;10.850;2023-05-07T23:12:18;2.40;;;2.30;;
8171;SDS011;4127;47.908;10.850;2023-05-07T23:14:45;2.57;;;2.37;;
8171;SDS011;4127;47.908;10.850;2023-05-07T23:17:12;2.30;;;2.10;;
8171;SDS011;4127;47.908;10.850;2023-05-07T23:19:39;1.70;;;1.60;;
8171;SDS011;4127;47.908;10.850;2023-05-07T23:22:06;1.60;;;1.50;;
8171;SDS011;4127;47.908;10.850;2023-05-07T23:24:32;1.53;;;1.43;;
8171;SDS011;4127;47.908;10.850;2023-05-07T23:27:02;1.70;;;1.60;;
8171;SDS011;4127;47.908;10.850;2023-05-07T23:29:30;1.40;;;1.30;;
8171;SDS011;4127;47.908;10.850;2023-05-07T23:31:58;1.70;;;1.60;;
8171;SDS011;4127;47.908;10.850;2023-05-07T23:34:25;1.60;;;1.50;;
8171;SDS011;4127;47.908;10.850;2023-05-07T23:36:52;1.70;;;1.60;;
8171;SDS011;4127;47.908;10.850;2023-05-07T23:39:19;1.80;;;1.70;;
8171;SDS011;4127;47.908;10.850;2023-05-07T23:41:46;1.70;;;1.60;;
8171;SDS011;4127;47.908;10.850;2023-05-07T23:44:12;1.77;;;1.67;;
8171;SDS011;4127;47.908;10.850;2023-05-07T23:46:41;1.60;;;1.50;;
8171;SDS011;4127;47.908;10.850;2023-05-07T23:49:09;1.53;;;1.43;;
8171;SDS011;4127;47.908;10.850;2023-05-07T23:51:36;2.00;;;1.90;;
8171;SDS011;4127;47.908;10.850;2023-05-07T23:54:03;1.40;;;1.30;;
8171;SDS011;4127;47.908;10.850;2023-05-07T23:56:30;1.60;;;1.50;;
8171;SDS011;4127;47.908;10.850;2023-05-07T23:58:57;1.97;;;1.83;;
